Terminal Aerodrome Forecast
Issued by NWS Denver/Boulder, CO

Home | Current Version | Previous Version | Text Only | Print | Product List | Glossary On
Versions: 1 2 3 4 5 6 7 8 9 10 11 12 13 14 15 16 17 18 19 20 21 22 23 24 25 26 27 28 29 30 31 32 33 34 35 36 37 38 39 40 41
000
FTUS45 KBOU 231737
TAFDEN
TAF
KDEN 231737Z 2318/2424 16006KT P6SM FEW100
     FM231930 07006KT P6SM SCT100
     FM232300 07006KT P6SM VCTS SCT090CB BKN130
     FM240300 18010KT P6SM FEW090 SCT130 BKN200
     FM240700 22010KT P6SM SCT130 BKN220
     FM241600 08008KT P6SM SCT100=

USA.gov is the U.S. government's official web portal to all federal, state and local government web resources and services.